createdAt,value
2022-08-03T00:02:18.655Z,91.60
2022-08-03T00:04:48.904Z,91.60
2022-08-03T00:07:16.982Z,91.60
2022-08-03T00:09:46.742Z,91.70
2022-08-03T00:12:14.175Z,91.70
2022-08-03T00:14:41.708Z,91.70
2022-08-03T00:17:09.122Z,91.70
2022-08-03T00:19:36.326Z,91.70
2022-08-03T00:22:03.496Z,91.80
2022-08-03T00:24:32.979Z,91.80
2022-08-03T00:27:04.542Z,91.80
2022-08-03T00:29:31.784Z,91.80
2022-08-03T00:31:59.539Z,91.80
2022-08-03T00:34:36.277Z,91.90
2022-08-03T00:37:04.029Z,91.90
2022-08-03T00:39:33.541Z,92.00
2022-08-03T00:42:05.206Z,92.00
2022-08-03T00:44:38.948Z,92.10
2022-08-03T00:47:06.401Z,92.00
2022-08-03T00:49:33.746Z,92.10
2022-08-03T00:52:09.333Z,92.10
2022-08-03T00:54:38.546Z,92.20
2022-08-03T00:57:06.447Z,92.10
2022-08-03T00:59:34.608Z,92.20
2022-08-03T01:02:06.815Z,92.20
2022-08-03T01:04:36.430Z,92.30
2022-08-03T01:07:11.404Z,92.20
2022-08-03T01:10:00.951Z,92.40
2022-08-03T01:12:53.231Z,92.40
2022-08-03T01:15:38.753Z,92.60
2022-08-03T01:18:05.862Z,92.40
2022-08-03T01:20:36.834Z,92.30
2022-08-03T01:23:18.804Z,92.30
2022-08-03T01:26:36.820Z,92.50
2022-08-03T01:29:21.537Z,92.70
2022-08-03T01:32:57.982Z,92.40
2022-08-03T01:34:57.678Z,92.50
2022-08-03T01:37:38.693Z,92.50
2022-08-03T01:40:07.890Z,92.60
2022-08-03T01:42:37.817Z,92.50
2022-08-03T01:45:07.450Z,92.50
2022-08-03T01:47:35.520Z,92.50
2022-08-03T01:50:05.004Z,92.60
2022-08-03T01:52:37.936Z,92.70
2022-08-03T01:55:09.346Z,92.70
2022-08-03T01:58:05.233Z,92.70
2022-08-03T02:00:27.712Z,92.80
2022-08-03T02:03:04.055Z,92.80
2022-08-03T02:05:33.733Z,92.80
2022-08-03T02:08:03.664Z,92.90
2022-08-03T02:10:35.128Z,92.90
2022-08-03T02:13:06.241Z,92.90
2022-08-03T02:15:37.998Z,92.90
2022-08-03T02:18:07.812Z,92.90
2022-08-03T02:20:39.052Z,93.00
2022-08-03T02:23:07.279Z,93.10
2022-08-03T02:25:43.077Z,93.00
2022-08-03T02:28:20.113Z,93.20
2022-08-03T02:30:57.257Z,93.20
2022-08-03T02:33:32.971Z,93.30
2022-08-03T02:36:02.507Z,93.30
2022-08-03T02:38:33.783Z,93.20
2022-08-03T02:41:04.216Z,93.30
2022-08-03T02:43:39.197Z,93.20
2022-08-03T02:46:28.627Z,93.20
2022-08-03T02:48:57.590Z,93.30
2022-08-03T02:51:27.825Z,93.20
2022-08-03T02:53:56.432Z,93.20
2022-08-03T02:56:27.356Z,93.30
2022-08-03T02:58:58.425Z,93.30
2022-08-03T03:01:28.277Z,93.30
2022-08-03T03:03:57.600Z,93.40
2022-08-03T03:06:26.911Z,93.30
2022-08-03T03:08:59.876Z,93.40
2022-08-03T03:11:28.532Z,93.40
2022-08-03T03:13:58.510Z,93.40
2022-08-03T03:16:26.959Z,93.40
2022-08-03T03:18:55.008Z,93.50
2022-08-03T03:21:23.793Z,93.50
2022-08-03T03:23:52.255Z,93.50
2022-08-03T03:26:19.712Z,93.50
2022-08-03T03:28:52.501Z,93.50
2022-08-03T03:31:19.767Z,93.50
2022-08-03T03:33:49.544Z,93.50
2022-08-03T03:36:19.294Z,93.60
2022-08-03T03:38:46.506Z,93.70
2022-08-03T03:41:16.311Z,93.70
2022-08-03T03:43:43.772Z,93.80
2022-08-03T03:46:13.336Z,93.80
2022-08-03T03:48:40.803Z,93.70
2022-08-03T03:51:08.333Z,93.70
2022-08-03T03:53:35.779Z,93.80
2022-08-03T03:56:03.319Z,93.80
2022-08-03T03:58:32.121Z,93.80
2022-08-03T04:01:00.076Z,93.80
2022-08-03T04:03:30.095Z,93.80
2022-08-03T04:06:18.943Z,93.80
2022-08-03T04:09:04.950Z,93.90
2022-08-03T04:11:38.505Z,93.90
2022-08-03T04:14:10.895Z,94.00
2022-08-03T04:16:43.803Z,94.00
2022-08-03T04:19:23.074Z,93.90
2022-08-03T04:21:57.311Z,94.00
2022-08-03T04:24:34.054Z,94.00
2022-08-03T04:27:04.913Z,94.10
2022-08-03T04:29:48.175Z,94.00
2022-08-03T04:32:17.615Z,94.00
2022-08-03T04:34:45.346Z,94.00
2022-08-03T04:37:24.537Z,94.00
2022-08-03T04:39:53.826Z,94.20
2022-08-03T04:42:25.798Z,94.10
2022-08-03T04:45:00.436Z,94.00
2022-08-03T04:47:36.031Z,94.10
2022-08-03T04:50:08.080Z,94.20
2022-08-03T04:52:40.315Z,94.20
2022-08-03T04:55:10.220Z,94.30
2022-08-03T04:57:37.664Z,94.20
2022-08-03T05:00:06.853Z,94.20
2022-08-03T05:02:36.401Z,94.30
2022-08-03T05:05:06.578Z,94.20
2022-08-03T05:07:39.050Z,94.30
2022-08-03T05:10:15.831Z,94.40
2022-08-03T05:12:45.894Z,94.30
2022-08-03T05:15:13.599Z,94.30
2022-08-03T05:17:40.915Z,94.30
2022-08-03T05:20:08.826Z,94.40
2022-08-03T05:22:36.060Z,94.40
2022-08-03T05:25:03.831Z,94.50
2022-08-03T05:27:33.344Z,94.50
2022-08-03T05:30:31.132Z,94.80
2022-08-03T05:32:47.916Z,94.50
2022-08-03T05:36:01.895Z,94.50
2022-08-03T05:38:03.548Z,94.50
2022-08-03T05:40:33.667Z,94.60
2022-08-03T05:43:01.722Z,94.60
2022-08-03T05:45:29.041Z,94.60
2022-08-03T05:47:59.309Z,94.70
2022-08-03T05:50:28.755Z,94.70
2022-08-03T05:52:58.490Z,94.70
2022-08-03T05:55:27.986Z,94.80
2022-08-03T05:57:56.725Z,94.80
2022-08-03T06:00:24.361Z,94.90
2022-08-03T06:02:52.951Z,94.90
2022-08-03T06:05:20.216Z,94.90
2022-08-03T06:07:50.497Z,94.90
2022-08-03T06:10:35.272Z,95.00
2022-08-03T06:13:05.275Z,95.00
2022-08-03T06:15:35.472Z,95.00
2022-08-03T06:18:02.739Z,95.10
2022-08-03T06:20:30.309Z,95.10
2022-08-03T06:23:00.329Z,95.10
2022-08-03T06:25:28.994Z,95.20
2022-08-03T06:27:56.270Z,95.20
2022-08-03T06:30:23.551Z,95.20
2022-08-03T06:32:52.152Z,95.20
2022-08-03T06:35:20.007Z,95.30
2022-08-03T06:37:50.001Z,95.30
2022-08-03T06:40:24.279Z,95.30
2022-08-03T06:42:51.880Z,95.40
2022-08-03T06:45:19.219Z,95.40
2022-08-03T06:47:59.600Z,95.40
2022-08-03T06:50:26.985Z,95.40
2022-08-03T06:52:54.294Z,95.40
2022-08-03T06:55:21.928Z,95.50
2022-08-03T06:57:49.147Z,95.40
2022-08-03T07:00:19.718Z,95.50
2022-08-03T07:02:47.066Z,95.50
2022-08-03T07:05:17.769Z,95.50
2022-08-03T07:07:45.023Z,95.50
2022-08-03T07:10:12.460Z,95.60
2022-08-03T07:12:52.975Z,95.60
2022-08-03T07:15:38.275Z,95.60
2022-08-03T07:18:11.568Z,95.70
2022-08-03T07:20:38.827Z,95.70
2022-08-03T07:23:06.058Z,95.70
2022-08-03T07:25:33.409Z,95.70
2022-08-03T07:28:03.043Z,95.80
2022-08-03T07:30:30.287Z,95.80
2022-08-03T07:32:57.761Z,95.90
2022-08-03T07:35:25.562Z,95.80
2022-08-03T07:37:55.938Z,95.80
2022-08-03T07:40:23.311Z,95.70
2022-08-03T07:42:54.306Z,95.70
2022-08-03T07:45:23.473Z,95.70
2022-08-03T07:47:53.195Z,95.60
2022-08-03T07:50:22.392Z,95.70
2022-08-03T07:52:50.842Z,95.70
2022-08-03T07:55:20.311Z,95.60
2022-08-03T07:57:59.356Z,95.60
2022-08-03T08:00:28.685Z,95.70
2022-08-03T08:02:58.335Z,95.80
2022-08-03T08:05:29.496Z,95.80
2022-08-03T08:07:59.122Z,95.80
2022-08-03T08:10:26.434Z,95.70
2022-08-03T08:12:54.729Z,95.70
2022-08-03T08:15:24.098Z,95.80
2022-08-03T08:17:53.846Z,95.70
2022-08-03T08:20:28.273Z,95.50
2022-08-03T08:23:02.783Z,95.30
2022-08-03T08:25:32.366Z,95.40
2022-08-03T08:28:25.302Z,95.50
2022-08-03T08:30:55.739Z,95.30
2022-08-03T08:33:24.069Z,95.30
2022-08-03T08:35:54.402Z,95.40
2022-08-03T08:38:23.014Z,95.30
2022-08-03T08:40:50.904Z,95.40
2022-08-03T08:43:18.359Z,95.40
2022-08-03T08:45:48.977Z,95.30
2022-08-03T08:48:21.466Z,95.30
2022-08-03T08:50:52.444Z,95.10
2022-08-03T08:53:25.479Z,95.10
2022-08-03T08:56:04.593Z,95.30
2022-08-03T08:58:42.173Z,95.30
2022-08-03T09:01:11.582Z,95.40
2022-08-03T09:03:38.941Z,95.40
2022-08-03T09:06:06.841Z,95.40
2022-08-03T09:08:34.214Z,95.80
2022-08-03T09:11:01.666Z,95.50
2022-08-03T09:13:30.417Z,95.50
2022-08-03T09:16:14.162Z,95.50
2022-08-03T09:18:48.563Z,95.60
2022-08-03T09:21:34.742Z,95.40
2022-08-03T09:24:05.906Z,95.50
2022-08-03T09:26:40.196Z,95.50
2022-08-03T09:29:14.589Z,95.10
2022-08-03T09:31:47.832Z,95.40
2022-08-03T09:34:18.091Z,95.30
2022-08-03T09:36:50.543Z,95.00
2022-08-03T09:39:41.191Z,95.10
2022-08-03T09:42:18.354Z,95.30
2022-08-03T09:44:50.762Z,94.80
2022-08-03T09:47:29.758Z,95.30
2022-08-03T09:49:58.596Z,95.30
2022-08-03T09:52:38.921Z,95.20
2022-08-03T09:55:23.655Z,95.30
2022-08-03T09:58:10.543Z,95.20
2022-08-03T10:00:58.852Z,95.10
2022-08-03T10:03:28.897Z,95.30
2022-08-03T10:05:59.915Z,95.10
2022-08-03T10:08:27.537Z,95.20
2022-08-03T10:10:55.052Z,95.20
2022-08-03T10:13:23.186Z,95.20
2022-08-03T10:16:21.601Z,95.20
2022-08-03T10:18:39.767Z,94.90
2022-08-03T10:21:10.535Z,94.90
2022-08-03T10:23:40.235Z,94.70
2022-08-03T10:26:13.169Z,94.80
2022-08-03T10:28:46.652Z,95.00
2022-08-03T10:31:16.345Z,95.10
2022-08-03T10:33:50.232Z,95.00
2022-08-03T10:36:25.570Z,95.10
2022-08-03T10:38:57.047Z,95.10
2022-08-03T10:41:31.023Z,95.00
2022-08-03T10:44:08.654Z,95.20
2022-08-03T10:46:44.191Z,95.20
2022-08-03T10:49:32.801Z,95.10
2022-08-03T10:52:12.821Z,95.10
2022-08-03T10:55:07.485Z,94.90
2022-08-03T10:57:59.115Z,94.60
2022-08-03T11:00:30.433Z,95.00
2022-08-03T11:03:10.661Z,95.00
2022-08-03T11:05:46.345Z,95.00
2022-08-03T11:08:23.143Z,94.90
2022-08-03T11:10:52.940Z,94.70
2022-08-03T11:13:23.063Z,94.90
2022-08-03T11:15:53.195Z,94.60
2022-08-03T11:18:28.205Z,94.40
2022-08-03T11:20:59.972Z,94.70
2022-08-03T11:24:04.942Z,94.80
2022-08-03T11:26:29.621Z,94.90
2022-08-03T11:29:30.119Z,94.20
2022-08-03T11:31:57.934Z,94.40
2022-08-03T11:34:28.244Z,94.40
2022-08-03T11:37:23.279Z,93.80
2022-08-03T11:39:57.143Z,94.40
2022-08-03T11:42:24.586Z,94.30
2022-08-03T11:44:56.981Z,94.10
2022-08-03T11:47:31.229Z,93.90
2022-08-03T11:50:01.867Z,94.00
2022-08-03T11:52:35.705Z,94.10
2022-08-03T11:55:08.360Z,94.10
2022-08-03T11:59:01.644Z,94.00
2022-08-03T12:00:27.516Z,94.00
2022-08-03T12:03:03.381Z,94.00
2022-08-03T12:05:38.699Z,94.20
2022-08-03T12:08:07.644Z,93.80
2022-08-03T12:10:39.159Z,93.40
2022-08-03T12:14:35.672Z,93.60
2022-08-03T12:16:00.475Z,93.50
2022-08-03T12:18:27.683Z,93.90
2022-08-03T12:21:09.068Z,93.90
2022-08-03T12:23:38.066Z,93.80
2022-08-03T12:26:08.205Z,93.20
2022-08-03T12:28:38.439Z,93.60
2022-08-03T12:31:07.774Z,93.90
2022-08-03T12:34:05.082Z,93.90
2022-08-03T12:36:35.262Z,93.90
2022-08-03T12:39:06.180Z,93.90
2022-08-03T12:41:35.417Z,93.80
2022-08-03T12:44:04.671Z,94.00
2022-08-03T12:46:45.407Z,93.30
2022-08-03T12:49:17.344Z,93.00
2022-08-03T12:51:44.563Z,93.20
2022-08-03T12:54:26.264Z,93.10
2022-08-03T12:57:07.632Z,93.60
2022-08-03T12:59:45.111Z,93.30
2022-08-03T13:02:25.798Z,93.50
2022-08-03T13:04:56.520Z,93.80
2022-08-03T13:07:23.960Z,93.00
2022-08-03T13:09:55.932Z,93.20
2022-08-03T13:12:28.646Z,93.00
2022-08-03T13:14:58.124Z,92.70
2022-08-03T13:17:28.178Z,92.90
2022-08-03T13:19:55.966Z,92.70
2022-08-03T13:22:29.039Z,93.10
2022-08-03T13:24:58.549Z,93.00
2022-08-03T13:28:05.414Z,93.20
2022-08-03T13:30:30.253Z,93.00
2022-08-03T13:33:00.094Z,92.70
2022-08-03T13:35:27.236Z,92.50
2022-08-03T13:37:59.364Z,92.40
2022-08-03T13:40:30.400Z,91.20
2022-08-03T13:43:02.670Z,91.80
2022-08-03T13:45:31.877Z,91.70
2022-08-03T13:47:59.056Z,92.20
2022-08-03T13:50:30.021Z,92.20
2022-08-03T13:52:59.541Z,92.20
2022-08-03T13:55:32.314Z,91.90
2022-08-03T13:58:02.916Z,92.00
2022-08-03T14:00:50.837Z,92.10
2022-08-03T14:03:23.438Z,90.80
2022-08-03T14:05:50.630Z,91.60
2022-08-03T14:08:18.253Z,92.00
2022-08-03T14:10:45.908Z,92.20
2022-08-03T14:13:17.577Z,92.60
2022-08-03T14:15:51.029Z,92.30
2022-08-03T14:18:29.307Z,92.20
2022-08-03T14:21:05.844Z,92.40
2022-08-03T14:23:40.005Z,92.30
2022-08-03T14:26:14.763Z,92.50
2022-08-03T14:28:42.025Z,92.60
2022-08-03T14:32:10.362Z,92.50
2022-08-03T14:34:01.357Z,90.70
2022-08-03T14:36:28.711Z,92.20
2022-08-03T14:39:01.399Z,92.30
2022-08-03T14:41:28.972Z,92.40
2022-08-03T14:44:01.438Z,92.50
2022-08-03T14:46:32.275Z,92.50
2022-08-03T14:50:31.972Z,92.50
2022-08-03T14:51:53.346Z,92.50
2022-08-03T14:54:22.330Z,92.00
2022-08-03T14:56:50.273Z,92.30
2022-08-03T14:59:17.542Z,91.90
2022-08-03T15:02:05.603Z,92.40
2022-08-03T15:04:34.219Z,92.50
2022-08-03T15:07:01.515Z,92.60
2022-08-03T15:09:28.670Z,92.60
2022-08-03T15:11:58.154Z,92.60
2022-08-03T15:14:32.337Z,92.60
2022-08-03T15:17:02.945Z,92.50
2022-08-03T15:20:01.594Z,92.40
2022-08-03T15:22:20.667Z,92.40
2022-08-03T15:24:52.478Z,91.80
2022-08-03T15:27:19.900Z,91.90
2022-08-03T15:30:07.433Z,92.10
2022-08-03T15:32:36.773Z,91.90
2022-08-03T15:35:04.330Z,92.00
2022-08-03T15:37:33.881Z,91.70
2022-08-03T15:40:01.372Z,91.80
2022-08-03T15:42:35.739Z,91.90
2022-08-03T15:45:03.588Z,91.90
2022-08-03T15:47:32.789Z,92.00
2022-08-03T15:50:00.058Z,92.00
2022-08-03T15:52:29.382Z,92.00
2022-08-03T15:54:59.239Z,92.00
2022-08-03T15:57:28.631Z,91.20
2022-08-03T16:00:00.495Z,91.40
2022-08-03T16:02:33.019Z,91.40
2022-08-03T16:05:00.486Z,91.50
2022-08-03T16:07:58.574Z,91.60
2022-08-03T16:10:30.829Z,91.30
2022-08-03T16:13:02.756Z,90.50
2022-08-03T16:15:32.214Z,90.70
2022-08-03T16:18:08.985Z,91.00
2022-08-03T16:20:41.729Z,91.10
2022-08-03T16:23:15.232Z,90.90
2022-08-03T16:25:49.097Z,90.60
2022-08-03T16:28:20.471Z,90.70
2022-08-03T16:30:47.827Z,90.80
2022-08-03T16:33:18.038Z,90.90
2022-08-03T16:35:49.695Z,91.00
2022-08-03T16:38:19.854Z,91.10
2022-08-03T16:40:53.509Z,90.80
2022-08-03T16:43:22.414Z,91.10
2022-08-03T16:45:50.209Z,90.80
2022-08-03T16:48:18.666Z,91.00
2022-08-03T16:50:49.120Z,91.00
2022-08-03T16:53:33.014Z,91.00
2022-08-03T16:56:09.527Z,90.80
2022-08-03T16:58:42.565Z,90.70
2022-08-03T17:01:22.008Z,90.90
2022-08-03T17:04:04.867Z,90.90
2022-08-03T17:06:44.756Z,90.80
2022-08-03T17:09:19.032Z,90.20
2022-08-03T17:11:50.177Z,90.30
2022-08-03T17:14:28.225Z,90.50
2022-08-03T17:17:01.028Z,90.10
2022-08-03T17:19:30.721Z,90.10
2022-08-03T17:22:15.836Z,90.10
2022-08-03T17:24:56.019Z,88.30
2022-08-03T17:28:50.555Z,87.80
2022-08-03T17:30:21.487Z,88.70
2022-08-03T17:32:57.355Z,88.40
2022-08-03T17:35:35.562Z,88.70
2022-08-03T17:38:09.016Z,88.30
2022-08-03T17:40:48.097Z,88.60
2022-08-03T17:44:13.112Z,88.50
2022-08-03T17:46:07.308Z,88.20
2022-08-03T17:48:41.313Z,88.30
2022-08-03T17:51:53.175Z,88.40
2022-08-03T17:54:27.137Z,87.50
2022-08-03T17:58:02.114Z,87.90
2022-08-03T18:03:57.000Z,88.30
2022-08-03T18:06:28.907Z,88.20
2022-08-03T18:09:00.096Z,88.30
2022-08-03T18:11:40.402Z,88.10
2022-08-03T18:14:17.327Z,88.00
2022-08-03T18:16:49.595Z,87.40
2022-08-03T18:19:19.966Z,87.80
2022-08-03T18:22:09.960Z,87.80
2022-08-03T18:24:42.237Z,87.60
2022-08-03T18:27:10.983Z,87.20
2022-08-03T18:29:39.903Z,87.30
2022-08-03T18:32:13.489Z,87.30
2022-08-03T18:34:53.531Z,87.00
2022-08-03T18:37:26.851Z,86.90
2022-08-03T18:42:52.939Z,86.70
2022-08-03T18:45:57.311Z,86.60
2022-08-03T18:48:26.990Z,86.50
2022-08-03T18:51:28.452Z,85.90
2022-08-03T18:54:11.009Z,86.40
2022-08-03T18:57:02.895Z,86.00
2022-08-03T18:59:58.575Z,85.90
2022-08-03T19:02:35.860Z,84.80
2022-08-03T19:05:10.926Z,85.80
2022-08-03T19:07:40.588Z,85.20
2022-08-03T19:10:10.314Z,85.70
2022-08-03T19:12:45.402Z,85.60
2022-08-03T19:15:17.609Z,85.40
2022-08-03T19:18:11.195Z,85.40
2022-08-03T19:20:41.369Z,85.20
2022-08-03T19:23:18.117Z,85.20
2022-08-03T19:25:50.756Z,85.10
2022-08-03T19:28:19.089Z,84.80
2022-08-03T19:30:53.605Z,84.80
2022-08-03T19:36:18.162Z,84.90
2022-08-03T19:38:55.403Z,84.80
2022-08-03T19:41:31.089Z,84.80
2022-08-03T19:44:20.253Z,84.80
2022-08-03T19:46:57.842Z,84.70
2022-08-03T19:50:04.709Z,84.70
2022-08-03T19:52:24.476Z,84.80
2022-08-03T19:55:00.456Z,84.80
2022-08-03T19:57:29.336Z,84.90
2022-08-03T19:59:59.093Z,85.00
2022-08-03T20:02:34.764Z,84.90
2022-08-03T20:05:02.048Z,84.90
2022-08-03T20:07:33.518Z,84.90
2022-08-03T20:10:03.146Z,85.00
2022-08-03T20:12:33.174Z,85.00
2022-08-03T20:15:05.095Z,84.90
2022-08-03T20:17:55.228Z,85.00
2022-08-03T20:20:25.671Z,84.90
2022-08-03T20:22:57.769Z,85.00
2022-08-03T20:25:38.137Z,85.10
2022-08-03T20:31:10.935Z,84.80
2022-08-03T20:33:46.163Z,84.90
2022-08-03T20:36:18.530Z,85.00
2022-08-03T20:38:50.181Z,85.00
2022-08-03T20:41:19.468Z,84.90
2022-08-03T20:43:49.438Z,85.00
2022-08-03T20:46:36.021Z,85.10
2022-08-03T20:49:12.038Z,85.10
2022-08-03T20:51:49.744Z,85.10
2022-08-03T20:54:31.006Z,85.20
2022-08-03T20:57:04.446Z,85.10
2022-08-03T20:59:47.671Z,84.90
2022-08-03T21:02:29.687Z,85.20
2022-08-03T21:05:03.219Z,85.00
2022-08-03T21:07:45.591Z,85.70
2022-08-03T21:10:29.882Z,85.00
2022-08-03T21:12:56.082Z,87.60
2022-08-03T21:13:02.403Z,84.70
2022-08-03T21:13:04.191Z,86.70
2022-08-03T21:13:14.022Z,84.90
2022-08-03T21:13:15.991Z,85.10
2022-08-03T21:16:02.981Z,85.20
2022-08-03T21:18:48.442Z,85.20
2022-08-03T21:21:17.682Z,85.40
2022-08-03T21:23:49.667Z,85.20
2022-08-03T21:26:19.801Z,85.30
2022-08-03T21:28:51.005Z,85.30
2022-08-03T21:31:25.305Z,85.40
2022-08-03T21:33:55.723Z,85.40
2022-08-03T21:36:23.339Z,85.60
2022-08-03T21:38:56.689Z,85.60
2022-08-03T21:41:26.204Z,85.60
2022-08-03T21:43:53.427Z,85.70
2022-08-03T21:46:21.747Z,86.20
2022-08-03T21:50:06.831Z,86.20
2022-08-03T21:51:54.163Z,86.00
2022-08-03T21:54:26.797Z,86.30
2022-08-03T21:56:56.748Z,86.20
2022-08-03T21:59:26.066Z,86.40
2022-08-03T22:01:58.565Z,86.40
2022-08-03T22:04:50.070Z,86.60
2022-08-03T22:07:15.647Z,86.60
2022-08-03T22:09:51.065Z,86.80
2022-08-03T22:12:25.181Z,87.00
2022-08-03T22:15:00.860Z,87.20
2022-08-03T22:17:55.036Z,87.40
2022-08-03T22:20:21.679Z,87.40
2022-08-03T22:22:55.873Z,87.30
2022-08-03T22:25:32.951Z,87.40
2022-08-03T22:28:07.151Z,87.70
2022-08-03T22:30:35.060Z,87.60
2022-08-03T22:33:04.756Z,87.50
2022-08-03T22:35:46.400Z,87.70
2022-08-03T22:38:18.375Z,87.80
2022-08-03T22:40:50.817Z,88.00
2022-08-03T22:43:22.030Z,88.00
2022-08-03T22:46:09.132Z,87.80
2022-08-03T22:48:41.750Z,88.10
2022-08-03T22:51:09.806Z,88.20
2022-08-03T22:53:40.953Z,88.10
2022-08-03T22:56:11.053Z,88.40
2022-08-03T22:58:40.504Z,88.50
2022-08-03T23:01:09.905Z,88.50
2022-08-03T23:04:00.382Z,88.60
2022-08-03T23:06:34.538Z,88.90
2022-08-03T23:09:12.450Z,89.00
2022-08-03T23:11:45.762Z,89.20
2022-08-03T23:14:15.583Z,88.90
2022-08-03T23:16:44.669Z,89.00
2022-08-03T23:19:25.178Z,89.00
2022-08-03T23:22:02.174Z,89.00
2022-08-03T23:24:34.934Z,89.20
2022-08-03T23:27:07.268Z,89.30
2022-08-03T23:29:38.653Z,89.40
2022-08-03T23:32:06.541Z,89.40
2022-08-03T23:34:57.096Z,89.50
2022-08-03T23:37:28.208Z,89.60
2022-08-03T23:39:57.337Z,89.70
2022-08-03T23:42:25.414Z,89.70
2022-08-03T23:44:56.431Z,89.80
2022-08-03T23:47:46.667Z,89.90
2022-08-03T23:50:15.360Z,89.80
2022-08-03T23:53:08.017Z,89.90
2022-08-03T23:55:53.192Z,90.10
2022-08-03T23:58:48.493Z,90.30
